sensor_id;sensor_type;location;lat;lon;timestamp;temperature;humidity
3017;DHT22;1518;52.408;13.060;2022-11-20T00:02:44;13.50;78.50
3017;DHT22;1518;52.408;13.060;2022-11-20T00:05:33;13.50;78.70
3017;DHT22;1518;52.408;13.060;2022-11-20T00:08:21;13.50;78.20
3017;DHT22;1518;52.408;13.060;2022-11-20T00:11:11;13.40;78.40
3017;DHT22;1518;52.408;13.060;2022-11-20T00:14:02;13.40;78.60
3017;DHT22;1518;52.408;13.060;2022-11-20T00:16:50;13.30;78.60
3017;DHT22;1518;52.408;13.060;2022-11-20T00:19:38;13.30;78.80
3017;DHT22;1518;52.408;13.060;2022-11-20T00:22:27;13.10;78.80
3017;DHT22;1518;52.408;13.060;2022-11-20T00:25:16;13.20;78.90
3017;DHT22;1518;52.408;13.060;2022-11-20T00:28:04;13.20;79.50
3017;DHT22;1518;52.408;13.060;2022-11-20T00:30:52;13.20;79.40
3017;DHT22;1518;52.408;13.060;2022-11-20T00:33:40;13.10;78.60
3017;DHT22;1518;52.408;13.060;2022-11-20T00:36:31;13.20;79.30
3017;DHT22;1518;52.408;13.060;2022-11-20T00:39:21;13.10;79.10
3017;DHT22;1518;52.408;13.060;2022-11-20T00:42:09;13.30;80.70
3017;DHT22;1518;52.408;13.060;2022-11-20T00:44:57;13.50;80.30
3017;DHT22;1518;52.408;13.060;2022-11-20T00:47:45;13.60;80.40
3017;DHT22;1518;52.408;13.060;2022-11-20T00:50:33;13.90;80.20
3017;DHT22;1518;52.408;13.060;2022-11-20T00:53:21;14.00;79.90
3017;DHT22;1518;52.408;13.060;2022-11-20T00:56:12;13.90;79.40
3017;DHT22;1518;52.408;13.060;2022-11-20T00:59:01;13.90;79.20
3017;DHT22;1518;52.408;13.060;2022-11-20T01:01:49;14.00;78.30
3017;DHT22;1518;52.408;13.060;2022-11-20T01:04:37;14.00;77.60
3017;DHT22;1518;52.408;13.060;2022-11-20T01:07:25;13.90;77.70
3017;DHT22;1518;52.408;13.060;2022-11-20T01:10:13;13.90;77.70
3017;DHT22;1518;52.408;13.060;2022-11-20T01:13:02;13.90;78.00
3017;DHT22;1518;52.408;13.060;2022-11-20T01:16:13;13.90;78.70
3017;DHT22;1518;52.408;13.060;2022-11-20T01:19:03;13.90;78.40
3017;DHT22;1518;52.408;13.060;2022-11-20T01:21:53;13.90;77.90
3017;DHT22;1518;52.408;13.060;2022-11-20T01:24:41;13.80;77.90
3017;DHT22;1518;52.408;13.060;2022-11-20T01:27:29;13.80;77.20
3017;DHT22;1518;52.408;13.060;2022-11-20T01:30:19;13.70;77.70
3017;DHT22;1518;52.408;13.060;2022-11-20T01:33:07;13.70;77.80
3017;DHT22;1518;52.408;13.060;2022-11-20T01:36:03;13.60;77.00
3017;DHT22;1518;52.408;13.060;2022-11-20T01:38:52;13.50;77.80
3017;DHT22;1518;52.408;13.060;2022-11-20T01:41:41;13.50;77.80
3017;DHT22;1518;52.408;13.060;2022-11-20T01:44:57;13.40;78.40
3017;DHT22;1518;52.408;13.060;2022-11-20T01:47:46;13.30;78.20
3017;DHT22;1518;52.408;13.060;2022-11-20T01:50:36;13.30;77.60
3017;DHT22;1518;52.408;13.060;2022-11-20T01:53:28;13.40;78.10
3017;DHT22;1518;52.408;13.060;2022-11-20T01:56:18;13.20;78.70
3017;DHT22;1518;52.408;13.060;2022-11-20T01:59:07;13.20;79.70
3017;DHT22;1518;52.408;13.060;2022-11-20T02:01:56;13.10;78.80
3017;DHT22;1518;52.408;13.060;2022-11-20T02:04:46;13.10;78.10
3017;DHT22;1518;52.408;13.060;2022-11-20T02:07:35;13.10;78.30
3017;DHT22;1518;52.408;13.060;2022-11-20T02:10:23;13.10;79.10
3017;DHT22;1518;52.408;13.060;2022-11-20T02:13:11;13.10;79.40
3017;DHT22;1518;52.408;13.060;2022-11-20T02:16:21;13.20;79.00
3017;DHT22;1518;52.408;13.060;2022-11-20T02:19:17;13.30;80.50
3017;DHT22;1518;52.408;13.060;2022-11-20T02:22:13;13.50;80.40
3017;DHT22;1518;52.408;13.060;2022-11-20T02:25:04;13.80;79.80
3017;DHT22;1518;52.408;13.060;2022-11-20T02:27:53;13.80;79.70
3017;DHT22;1518;52.408;13.060;2022-11-20T02:30:41;13.90;80.10
3017;DHT22;1518;52.408;13.060;2022-11-20T02:33:29;13.90;79.00
3017;DHT22;1518;52.408;13.060;2022-11-20T02:36:17;13.90;78.60
3017;DHT22;1518;52.408;13.060;2022-11-20T02:39:05;14.00;78.30
3017;DHT22;1518;52.408;13.060;2022-11-20T02:41:56;13.90;77.30
3017;DHT22;1518;52.408;13.060;2022-11-20T02:44:44;13.90;77.90
3017;DHT22;1518;52.408;13.060;2022-11-20T02:47:32;13.80;77.60
3017;DHT22;1518;52.408;13.060;2022-11-20T02:50:21;13.80;77.70
3017;DHT22;1518;52.408;13.060;2022-11-20T02:53:09;13.80;77.80
3017;DHT22;1518;52.408;13.060;2022-11-20T02:55:57;13.80;77.30
3017;DHT22;1518;52.408;13.060;2022-11-20T02:58:46;13.60;77.60
3017;DHT22;1518;52.408;13.060;2022-11-20T03:01:34;13.80;78.00
3017;DHT22;1518;52.408;13.060;2022-11-20T03:04:22;13.70;77.10
3017;DHT22;1518;52.408;13.060;2022-11-20T03:07:10;13.60;77.00
3017;DHT22;1518;52.408;13.060;2022-11-20T03:09:58;13.60;77.50
3017;DHT22;1518;52.408;13.060;2022-11-20T03:12:46;13.30;77.20
3017;DHT22;1518;52.408;13.060;2022-11-20T03:15:37;13.30;78.00
3017;DHT22;1518;52.408;13.060;2022-11-20T03:18:27;13.40;77.90
3017;DHT22;1518;52.408;13.060;2022-11-20T03:21:16;13.40;77.90
3017;DHT22;1518;52.408;13.060;2022-11-20T03:24:04;13.30;77.70
3017;DHT22;1518;52.408;13.060;2022-11-20T03:26:52;13.20;78.30
3017;DHT22;1518;52.408;13.060;2022-11-20T03:29:40;13.20;77.90
3017;DHT22;1518;52.408;13.060;2022-11-20T03:32:30;13.10;78.00
3017;DHT22;1518;52.408;13.060;2022-11-20T03:35:18;13.20;78.90
3017;DHT22;1518;52.408;13.060;2022-11-20T03:38:06;13.10;78.80
3017;DHT22;1518;52.408;13.060;2022-11-20T03:40:58;13.10;78.40
3017;DHT22;1518;52.408;13.060;2022-11-20T03:43:49;13.10;79.10
3017;DHT22;1518;52.408;13.060;2022-11-20T03:46:38;13.10;78.60
3017;DHT22;1518;52.408;13.060;2022-11-20T03:49:27;13.20;79.30
3017;DHT22;1518;52.408;13.060;2022-11-20T03:52:15;13.30;79.70
3017;DHT22;1518;52.408;13.060;2022-11-20T03:55:04;13.30;79.40
3017;DHT22;1518;52.408;13.060;2022-11-20T03:57:52;13.40;79.30
3017;DHT22;1518;52.408;13.060;2022-11-20T04:00:40;13.50;79.50
3017;DHT22;1518;52.408;13.060;2022-11-20T04:03:28;13.40;78.60
3017;DHT22;1518;52.408;13.060;2022-11-20T04:06:20;13.40;78.70
3017;DHT22;1518;52.408;13.060;2022-11-20T04:09:09;13.40;78.40
3017;DHT22;1518;52.408;13.060;2022-11-20T04:11:57;13.80;79.40
3017;DHT22;1518;52.408;13.060;2022-11-20T04:14:45;13.50;78.20
3017;DHT22;1518;52.408;13.060;2022-11-20T04:17:33;13.50;78.80
3017;DHT22;1518;52.408;13.060;2022-11-20T04:20:21;13.50;78.70
3017;DHT22;1518;52.408;13.060;2022-11-20T04:23:10;13.60;78.50
3017;DHT22;1518;52.408;13.060;2022-11-20T04:26:01;13.50;78.60
3017;DHT22;1518;52.408;13.060;2022-11-20T04:28:50;13.50;78.30
3017;DHT22;1518;52.408;13.060;2022-11-20T04:31:38;13.40;78.00
3017;DHT22;1518;52.408;13.060;2022-11-20T04:34:26;13.40;78.20
3017;DHT22;1518;52.408;13.060;2022-11-20T04:37:14;13.40;78.50
3017;DHT22;1518;52.408;13.060;2022-11-20T04:40:05;13.40;78.20
3017;DHT22;1518;52.408;13.060;2022-11-20T04:42:53;13.40;78.60
3017;DHT22;1518;52.408;13.060;2022-11-20T04:45:41;13.30;77.70
3017;DHT22;1518;52.408;13.060;2022-11-20T04:48:29;13.30;78.60
3017;DHT22;1518;52.408;13.060;2022-11-20T04:51:17;13.20;78.60
3017;DHT22;1518;52.408;13.060;2022-11-20T04:54:05;13.20;78.90
3017;DHT22;1518;52.408;13.060;2022-11-20T04:56:55;13.10;78.50
3017;DHT22;1518;52.408;13.060;2022-11-20T04:59:43;13.00;78.70
3017;DHT22;1518;52.408;13.060;2022-11-20T05:02:31;13.00;78.80
3017;DHT22;1518;52.408;13.060;2022-11-20T05:05:20;13.10;79.20
3017;DHT22;1518;52.408;13.060;2022-11-20T05:08:08;13.00;78.40
3017;DHT22;1518;52.408;13.060;2022-11-20T05:11:00;13.10;79.00
3017;DHT22;1518;52.408;13.060;2022-11-20T05:13:50;13.20;80.60
3017;DHT22;1518;52.408;13.060;2022-11-20T05:16:38;13.30;80.50
3017;DHT22;1518;52.408;13.060;2022-11-20T05:19:26;13.60;80.20
3017;DHT22;1518;52.408;13.060;2022-11-20T05:22:14;13.70;79.60
3017;DHT22;1518;52.408;13.060;2022-11-20T05:25:03;14.00;79.00
3017;DHT22;1518;52.408;13.060;2022-11-20T05:27:51;14.10;79.20
3017;DHT22;1518;52.408;13.060;2022-11-20T05:30:40;14.20;78.90
3017;DHT22;1518;52.408;13.060;2022-11-20T05:33:28;14.30;78.70
3017;DHT22;1518;52.408;13.060;2022-11-20T05:36:17;14.30;78.40
3017;DHT22;1518;52.408;13.060;2022-11-20T05:39:05;14.40;78.30
3017;DHT22;1518;52.408;13.060;2022-11-20T05:41:53;14.40;78.00
3017;DHT22;1518;52.408;13.060;2022-11-20T05:44:55;14.40;77.50
3017;DHT22;1518;52.408;13.060;2022-11-20T05:47:45;14.40;77.80
3017;DHT22;1518;52.408;13.060;2022-11-20T05:50:33;14.30;77.50
3017;DHT22;1518;52.408;13.060;2022-11-20T05:53:21;14.30;76.90
3017;DHT22;1518;52.408;13.060;2022-11-20T05:56:11;14.20;77.60
3017;DHT22;1518;52.408;13.060;2022-11-20T05:59:00;14.20;77.70
3017;DHT22;1518;52.408;13.060;2022-11-20T06:01:48;14.20;77.70
3017;DHT22;1518;52.408;13.060;2022-11-20T06:04:37;14.10;77.50
3017;DHT22;1518;52.408;13.060;2022-11-20T06:07:25;14.00;77.50
3017;DHT22;1518;52.408;13.060;2022-11-20T06:10:13;14.00;76.80
3017;DHT22;1518;52.408;13.060;2022-11-20T06:13:01;13.90;77.10
3017;DHT22;1518;52.408;13.060;2022-11-20T06:15:49;13.80;77.70
3017;DHT22;1518;52.408;13.060;2022-11-20T06:18:38;13.80;77.70
3017;DHT22;1518;52.408;13.060;2022-11-20T06:21:27;13.70;77.20
3017;DHT22;1518;52.408;13.060;2022-11-20T06:24:16;13.70;77.90
3017;DHT22;1518;52.408;13.060;2022-11-20T06:27:04;13.60;78.10
3017;DHT22;1518;52.408;13.060;2022-11-20T06:29:52;13.50;77.70
3017;DHT22;1518;52.408;13.060;2022-11-20T06:32:40;13.40;77.90
3017;DHT22;1518;52.408;13.060;2022-11-20T06:35:28;13.60;78.70
3017;DHT22;1518;52.408;13.060;2022-11-20T06:38:18;13.40;78.80
3017;DHT22;1518;52.408;13.060;2022-11-20T06:41:07;13.30;78.70
3017;DHT22;1518;52.408;13.060;2022-11-20T06:43:55;13.30;78.20
3017;DHT22;1518;52.408;13.060;2022-11-20T06:46:43;13.30;78.70
3017;DHT22;1518;52.408;13.060;2022-11-20T06:49:31;13.30;78.50
3017;DHT22;1518;52.408;13.060;2022-11-20T06:52:21;13.30;78.30
3017;DHT22;1518;52.408;13.060;2022-11-20T06:55:10;13.20;79.20
3017;DHT22;1518;52.408;13.060;2022-11-20T06:57:58;13.20;78.80
3017;DHT22;1518;52.408;13.060;2022-11-20T07:00:46;13.30;80.20
3017;DHT22;1518;52.408;13.060;2022-11-20T07:03:34;13.40;80.10
3017;DHT22;1518;52.408;13.060;2022-11-20T07:06:22;13.60;80.00
3017;DHT22;1518;52.408;13.060;2022-11-20T07:09:10;13.90;79.80
3017;DHT22;1518;52.408;13.060;2022-11-20T07:12:00;13.90;79.40
3017;DHT22;1518;52.408;13.060;2022-11-20T07:14:48;14.10;79.10
3017;DHT22;1518;52.408;13.060;2022-11-20T07:17:36;14.20;78.90
3017;DHT22;1518;52.408;13.060;2022-11-20T07:20:24;14.40;78.70
3017;DHT22;1518;52.408;13.060;2022-11-20T07:23:12;14.30;78.50
3017;DHT22;1518;52.408;13.060;2022-11-20T07:26:02;14.30;78.90
3017;DHT22;1518;52.408;13.060;2022-11-20T07:28:52;14.40;78.10
3017;DHT22;1518;52.408;13.060;2022-11-20T07:31:41;14.40;78.00
3017;DHT22;1518;52.408;13.060;2022-11-20T07:34:29;14.40;77.50
3017;DHT22;1518;52.408;13.060;2022-11-20T07:37:17;14.30;77.20
3017;DHT22;1518;52.408;13.060;2022-11-20T07:40:06;14.30;77.20
3017;DHT22;1518;52.408;13.060;2022-11-20T07:42:55;14.30;76.80
3017;DHT22;1518;52.408;13.060;2022-11-20T07:45:44;14.30;77.60
3017;DHT22;1518;52.408;13.060;2022-11-20T07:48:33;14.20;77.30
3017;DHT22;1518;52.408;13.060;2022-11-20T07:51:21;14.20;77.30
3017;DHT22;1518;52.408;13.060;2022-11-20T07:54:09;14.20;77.20
3017;DHT22;1518;52.408;13.060;2022-11-20T07:56:57;14.10;77.10
3017;DHT22;1518;52.408;13.060;2022-11-20T07:59:45;14.10;77.20
3017;DHT22;1518;52.408;13.060;2022-11-20T08:02:36;14.00;77.20
3017;DHT22;1518;52.408;13.060;2022-11-20T08:05:24;14.00;77.20
3017;DHT22;1518;52.408;13.060;2022-11-20T08:08:12;13.90;77.60
3017;DHT22;1518;52.408;13.060;2022-11-20T08:11:00;13.90;77.60
3017;DHT22;1518;52.408;13.060;2022-11-20T08:14:02;13.80;77.50
3017;DHT22;1518;52.408;13.060;2022-11-20T08:16:59;13.80;77.60
3017;DHT22;1518;52.408;13.060;2022-11-20T08:19:49;13.60;77.50
3017;DHT22;1518;52.408;13.060;2022-11-20T08:22:37;13.60;77.70
3017;DHT22;1518;52.408;13.060;2022-11-20T08:25:25;13.60;78.00
3017;DHT22;1518;52.408;13.060;2022-11-20T08:28:13;13.50;77.80
3017;DHT22;1518;52.408;13.060;2022-11-20T08:31:07;13.50;78.00
3017;DHT22;1518;52.408;13.060;2022-11-20T08:33:56;13.40;77.90
3017;DHT22;1518;52.408;13.060;2022-11-20T08:36:46;13.30;78.20
3017;DHT22;1518;52.408;13.060;2022-11-20T08:39:34;13.30;78.20
3017;DHT22;1518;52.408;13.060;2022-11-20T08:42:22;13.30;78.20
3017;DHT22;1518;52.408;13.060;2022-11-20T08:45:10;13.30;78.30
3017;DHT22;1518;52.408;13.060;2022-11-20T08:48:00;13.20;78.20
3017;DHT22;1518;52.408;13.060;2022-11-20T08:50:48;13.20;78.00
3017;DHT22;1518;52.408;13.060;2022-11-20T08:53:38;13.30;79.00
3017;DHT22;1518;52.408;13.060;2022-11-20T08:56:26;13.20;79.40
3017;DHT22;1518;52.408;13.060;2022-11-20T08:59:14;13.20;78.70
3017;DHT22;1518;52.408;13.060;2022-11-20T09:02:22;13.20;79.50
3017;DHT22;1518;52.408;13.060;2022-11-20T09:05:10;13.40;80.30
3017;DHT22;1518;52.408;13.060;2022-11-20T09:07:59;13.50;80.10
3017;DHT22;1518;52.408;13.060;2022-11-20T09:10:52;13.70;79.90
3017;DHT22;1518;52.408;13.060;2022-11-20T09:13:40;13.80;79.50
3017;DHT22;1518;52.408;13.060;2022-11-20T09:16:28;14.00;79.40
3017;DHT22;1518;52.408;13.060;2022-11-20T09:19:16;14.10;79.10
3017;DHT22;1518;52.408;13.060;2022-11-20T09:22:22;14.10;78.80
3017;DHT22;1518;52.408;13.060;2022-11-20T09:25:10;14.20;78.50
3017;DHT22;1518;52.408;13.060;2022-11-20T09:27:59;14.20;78.20
3017;DHT22;1518;52.408;13.060;2022-11-20T09:30:47;14.20;77.30
3017;DHT22;1518;52.408;13.060;2022-11-20T09:33:36;14.20;77.50
3017;DHT22;1518;52.408;13.060;2022-11-20T09:36:24;14.10;77.10
3017;DHT22;1518;52.408;13.060;2022-11-20T09:39:12;14.10;77.70
3017;DHT22;1518;52.408;13.060;2022-11-20T09:42:09;14.10;77.70
3017;DHT22;1518;52.408;13.060;2022-11-20T09:45:15;14.00;86.40
3017;DHT22;1518;52.408;13.060;2022-11-20T09:48:14;14.00;77.80
3017;DHT22;1518;52.408;13.060;2022-11-20T09:51:13;14.00;77.60
3017;DHT22;1518;52.408;13.060;2022-11-20T09:54:12;13.90;77.60
3017;DHT22;1518;52.408;13.060;2022-11-20T09:57:05;13.90;77.40
3017;DHT22;1518;52.408;13.060;2022-11-20T09:59:59;13.80;77.30
3017;DHT22;1518;52.408;13.060;2022-11-20T10:02:54;13.80;76.30
3017;DHT22;1518;52.408;13.060;2022-11-20T10:05:45;13.70;77.10
3017;DHT22;1518;52.408;13.060;2022-11-20T10:08:40;13.70;77.70
3017;DHT22;1518;52.408;13.060;2022-11-20T10:11:35;13.60;77.10
3017;DHT22;1518;52.408;13.060;2022-11-20T10:14:32;13.60;77.00
3017;DHT22;1518;52.408;13.060;2022-11-20T10:17:33;13.60;77.40
3017;DHT22;1518;52.408;13.060;2022-11-20T10:20:29;13.50;78.40
3017;DHT22;1518;52.408;13.060;2022-11-20T10:23:36;13.50;78.20
3017;DHT22;1518;52.408;13.060;2022-11-20T10:26:39;13.40;77.70
3017;DHT22;1518;52.408;13.060;2022-11-20T10:29:32;13.40;77.50
3017;DHT22;1518;52.408;13.060;2022-11-20T10:32:32;13.40;77.80
3017;DHT22;1518;52.408;13.060;2022-11-20T10:35:25;13.40;78.20
3017;DHT22;1518;52.408;13.060;2022-11-20T10:38:19;13.40;77.60
3017;DHT22;1518;52.408;13.060;2022-11-20T10:41:14;13.40;78.90
3017;DHT22;1518;52.408;13.060;2022-11-20T10:44:15;13.40;78.40
3017;DHT22;1518;52.408;13.060;2022-11-20T10:47:25;13.30;77.30
3017;DHT22;1518;52.408;13.060;2022-11-20T10:50:19;13.40;78.70
3017;DHT22;1518;52.408;13.060;2022-11-20T10:53:18;13.30;78.70
3017;DHT22;1518;52.408;13.060;2022-11-20T10:56:16;13.30;77.70
3017;DHT22;1518;52.408;13.060;2022-11-20T10:59:28;13.30;78.80
3017;DHT22;1518;52.408;13.060;2022-11-20T11:02:21;13.30;78.60
3017;DHT22;1518;52.408;13.060;2022-11-20T11:05:25;13.40;78.90
3017;DHT22;1518;52.408;13.060;2022-11-20T11:08:18;13.40;78.80
3017;DHT22;1518;52.408;13.060;2022-11-20T11:11:18;13.40;78.20
3017;DHT22;1518;52.408;13.060;2022-11-20T11:14:09;13.40;78.30
3017;DHT22;1518;52.408;13.060;2022-11-20T11:16:58;13.30;78.80
3017;DHT22;1518;52.408;13.060;2022-11-20T11:20:00;13.30;78.50
3017;DHT22;1518;52.408;13.060;2022-11-20T11:22:50;13.30;78.30
3017;DHT22;1518;52.408;13.060;2022-11-20T11:25:40;13.30;83.30
3017;DHT22;1518;52.408;13.060;2022-11-20T11:28:28;13.20;78.50
3017;DHT22;1518;52.408;13.060;2022-11-20T11:31:22;13.10;78.40
3017;DHT22;1518;52.408;13.060;2022-11-20T11:34:12;13.30;78.10
3017;DHT22;1518;52.408;13.060;2022-11-20T11:37:02;13.20;78.60
3017;DHT22;1518;52.408;13.060;2022-11-20T11:39:51;13.20;78.60
3017;DHT22;1518;52.408;13.060;2022-11-20T11:43:02;13.20;78.30
3017;DHT22;1518;52.408;13.060;2022-11-20T11:45:53;13.30;78.60
3017;DHT22;1518;52.408;13.060;2022-11-20T11:48:41;13.30;78.70
3017;DHT22;1518;52.408;13.060;2022-11-20T11:54:48;13.40;78.50
3017;DHT22;1518;52.408;13.060;2022-11-20T11:57:43;13.40;79.60
3017;DHT22;1518;52.408;13.060;2022-11-20T12:00:35;13.50;79.50
3017;DHT22;1518;52.408;13.060;2022-11-20T12:03:28;13.50;79.20
3017;DHT22;1518;52.408;13.060;2022-11-20T12:06:19;13.60;78.70
3017;DHT22;1518;52.408;13.060;2022-11-20T12:09:10;13.60;77.80
3017;DHT22;1518;52.408;13.060;2022-11-20T12:12:04;13.60;78.00
3017;DHT22;1518;52.408;13.060;2022-11-20T12:14:54;13.60;77.80
3017;DHT22;1518;52.408;13.060;2022-11-20T12:17:45;13.60;77.70
3017;DHT22;1518;52.408;13.060;2022-11-20T12:20:38;13.60;78.00
3017;DHT22;1518;52.408;13.060;2022-11-20T12:23:33;13.60;78.10
3017;DHT22;1518;52.408;13.060;2022-11-20T12:26:36;13.60;78.10
3017;DHT22;1518;52.408;13.060;2022-11-20T12:29:36;13.60;77.70
3017;DHT22;1518;52.408;13.060;2022-11-20T12:32:41;13.50;78.20
3017;DHT22;1518;52.408;13.060;2022-11-20T12:39:02;13.50;77.90
3017;DHT22;1518;52.408;13.060;2022-11-20T12:42:05;13.40;78.50
3017;DHT22;1518;52.408;13.060;2022-11-20T12:45:28;13.40;78.80
3017;DHT22;1518;52.408;13.060;2022-11-20T12:48:38;13.40;78.60
3017;DHT22;1518;52.408;13.060;2022-11-20T12:51:45;13.30;78.80
3017;DHT22;1518;52.408;13.060;2022-11-20T12:54:48;13.40;79.30
3017;DHT22;1518;52.408;13.060;2022-11-20T12:57:46;13.30;79.00
3017;DHT22;1518;52.408;13.060;2022-11-20T13:00:40;13.30;79.40
3017;DHT22;1518;52.408;13.060;2022-11-20T13:03:39;13.30;79.70
3017;DHT22;1518;52.408;13.060;2022-11-20T13:06:29;13.30;79.00
3017;DHT22;1518;52.408;13.060;2022-11-20T13:09:20;13.50;79.40
3017;DHT22;1518;52.408;13.060;2022-11-20T13:12:13;13.40;80.10
3017;DHT22;1518;52.408;13.060;2022-11-20T13:15:08;13.50;80.10
3017;DHT22;1518;52.408;13.060;2022-11-20T13:18:04;13.60;79.50
3017;DHT22;1518;52.408;13.060;2022-11-20T13:20:55;13.60;79.80
3017;DHT22;1518;52.408;13.060;2022-11-20T13:23:43;13.70;79.50
3017;DHT22;1518;52.408;13.060;2022-11-20T13:26:33;13.80;79.50
3017;DHT22;1518;52.408;13.060;2022-11-20T13:29:21;13.80;78.70
3017;DHT22;1518;52.408;13.060;2022-11-20T13:32:14;13.80;78.80
3017;DHT22;1518;52.408;13.060;2022-11-20T13:35:04;13.80;78.60
3017;DHT22;1518;52.408;13.060;2022-11-20T13:38:01;13.80;78.70
3017;DHT22;1518;52.408;13.060;2022-11-20T13:40:54;13.80;78.80
3017;DHT22;1518;52.408;13.060;2022-11-20T13:43:44;13.80;78.80
3017;DHT22;1518;52.408;13.060;2022-11-20T13:46:39;13.70;78.60
3017;DHT22;1518;52.408;13.060;2022-11-20T13:49:32;13.80;78.80
3017;DHT22;1518;52.408;13.060;2022-11-20T13:52:39;13.80;78.70
3017;DHT22;1518;52.408;13.060;2022-11-20T13:55:38;13.80;78.60
3017;DHT22;1518;52.408;13.060;2022-11-20T13:58:40;13.70;78.40
3017;DHT22;1518;52.408;13.060;2022-11-20T14:01:33;13.70;78.60
3017;DHT22;1518;52.408;13.060;2022-11-20T14:04:26;13.60;78.70
3017;DHT22;1518;52.408;13.060;2022-11-20T14:07:17;13.70;78.80
3017;DHT22;1518;52.408;13.060;2022-11-20T14:10:22;13.60;78.90
3017;DHT22;1518;52.408;13.060;2022-11-20T14:13:18;13.60;79.10
3017;DHT22;1518;52.408;13.060;2022-11-20T14:16:09;13.50;78.90
3017;DHT22;1518;52.408;13.060;2022-11-20T14:19:22;13.40;79.10
3017;DHT22;1518;52.408;13.060;2022-11-20T14:22:17;13.40;79.70
3017;DHT22;1518;52.408;13.060;2022-11-20T14:25:18;13.40;79.60
3017;DHT22;1518;52.408;13.060;2022-11-20T14:28:11;13.50;79.90
3017;DHT22;1518;52.408;13.060;2022-11-20T14:31:18;13.40;79.20
3017;DHT22;1518;52.408;13.060;2022-11-20T14:34:14;13.40;79.30
3017;DHT22;1518;52.408;13.060;2022-11-20T14:37:05;13.50;79.70
3017;DHT22;1518;52.408;13.060;2022-11-20T14:39:59;13.50;80.20
3017;DHT22;1518;52.408;13.060;2022-11-20T14:42:47;13.60;80.10
3017;DHT22;1518;52.408;13.060;2022-11-20T14:45:36;13.40;78.90
3017;DHT22;1518;52.408;13.060;2022-11-20T14:48:30;13.70;79.20
3017;DHT22;1518;52.408;13.060;2022-11-20T14:51:30;13.70;79.10
3017;DHT22;1518;52.408;13.060;2022-11-20T14:54:20;13.70;79.00
3017;DHT22;1518;52.408;13.060;2022-11-20T14:57:20;13.70;79.00
3017;DHT22;1518;52.408;13.060;2022-11-20T15:00:19;13.70;78.90
3017;DHT22;1518;52.408;13.060;2022-11-20T15:03:15;13.70;79.40
3017;DHT22;1518;52.408;13.060;2022-11-20T15:06:04;13.80;79.10
3017;DHT22;1518;52.408;13.060;2022-11-20T15:08:54;13.70;78.80
3017;DHT22;1518;52.408;13.060;2022-11-20T15:11:53;13.70;79.10
3017;DHT22;1518;52.408;13.060;2022-11-20T15:14:41;13.70;78.70
3017;DHT22;1518;52.408;13.060;2022-11-20T15:17:30;13.70;78.60
3017;DHT22;1518;52.408;13.060;2022-11-20T15:20:19;13.70;79.10
3017;DHT22;1518;52.408;13.060;2022-11-20T15:23:11;13.60;78.20
3017;DHT22;1518;52.408;13.060;2022-11-20T15:26:01;13.60;78.80
3017;DHT22;1518;52.408;13.060;2022-11-20T15:28:50;13.50;78.70
3017;DHT22;1518;52.408;13.060;2022-11-20T15:31:39;13.50;79.20
3017;DHT22;1518;52.408;13.060;2022-11-20T15:34:28;13.50;78.50
3017;DHT22;1518;52.408;13.060;2022-11-20T15:37:16;13.40;79.00
3017;DHT22;1518;52.408;13.060;2022-11-20T15:40:06;13.40;79.50
3017;DHT22;1518;52.408;13.060;2022-11-20T15:42:55;13.40;79.60
3017;DHT22;1518;52.408;13.060;2022-11-20T15:46:00;13.40;79.40
3017;DHT22;1518;52.408;13.060;2022-11-20T15:48:51;13.30;78.70
3017;DHT22;1518;52.408;13.060;2022-11-20T15:51:43;13.30;78.40
3017;DHT22;1518;52.408;13.060;2022-11-20T15:54:33;13.30;79.60
3017;DHT22;1518;52.408;13.060;2022-11-20T15:57:21;13.30;78.80
3017;DHT22;1518;52.408;13.060;2022-11-20T16:00:12;13.30;80.00
3017;DHT22;1518;52.408;13.060;2022-11-20T16:03:05;13.30;79.60
3017;DHT22;1518;52.408;13.060;2022-11-20T16:05:53;13.30;79.00
3017;DHT22;1518;52.408;13.060;2022-11-20T16:08:41;13.30;79.00
3017;DHT22;1518;52.408;13.060;2022-11-20T16:11:29;13.30;79.50
3017;DHT22;1518;52.408;13.060;2022-11-20T16:14:17;13.30;80.10
3017;DHT22;1518;52.408;13.060;2022-11-20T16:17:24;13.40;79.50
3017;DHT22;1518;52.408;13.060;2022-11-20T16:20:29;13.40;79.60
3017;DHT22;1518;52.408;13.060;2022-11-20T16:23:17;13.40;79.90
3017;DHT22;1518;52.408;13.060;2022-11-20T16:26:10;13.40;79.80
3017;DHT22;1518;52.408;13.060;2022-11-20T16:28:58;13.40;79.30
3017;DHT22;1518;52.408;13.060;2022-11-20T16:31:47;13.40;79.10
3017;DHT22;1518;52.408;13.060;2022-11-20T16:34:40;13.40;79.50
3017;DHT22;1518;52.408;13.060;2022-11-20T16:37:36;13.40;79.00
3017;DHT22;1518;52.408;13.060;2022-11-20T16:40:30;13.40;79.20
3017;DHT22;1518;52.408;13.060;2022-11-20T16:43:27;13.40;78.10
3017;DHT22;1518;52.408;13.060;2022-11-20T16:46:20;13.30;78.20
3017;DHT22;1518;52.408;13.060;2022-11-20T16:49:12;13.30;78.90
3017;DHT22;1518;52.408;13.060;2022-11-20T16:52:02;13.30;79.50
3017;DHT22;1518;52.408;13.060;2022-11-20T16:54:50;13.30;79.20
3017;DHT22;1518;52.408;13.060;2022-11-20T16:57:38;13.30;78.90
3017;DHT22;1518;52.408;13.060;2022-11-20T17:00:28;13.20;79.30
3017;DHT22;1518;52.408;13.060;2022-11-20T17:03:17;13.20;79.20
3017;DHT22;1518;52.408;13.060;2022-11-20T17:06:11;13.20;79.30
3017;DHT22;1518;52.408;13.060;2022-11-20T17:09:00;13.20;79.10
3017;DHT22;1518;52.408;13.060;2022-11-20T17:11:49;13.20;78.60
3017;DHT22;1518;52.408;13.060;2022-11-20T17:14:37;13.20;79.20
3017;DHT22;1518;52.408;13.060;2022-11-20T17:17:25;13.20;79.10
3017;DHT22;1518;52.408;13.060;2022-11-20T17:20:13;13.20;79.50
3017;DHT22;1518;52.408;13.060;2022-11-20T17:23:01;13.20;78.80
3017;DHT22;1518;52.408;13.060;2022-11-20T17:25:50;13.30;79.30
3017;DHT22;1518;52.408;13.060;2022-11-20T17:28:39;13.30;79.40
3017;DHT22;1518;52.408;13.060;2022-11-20T17:31:28;13.30;79.30
3017;DHT22;1518;52.408;13.060;2022-11-20T17:34:17;13.30;79.50
3017;DHT22;1518;52.408;13.060;2022-11-20T17:37:05;13.30;79.00
3017;DHT22;1518;52.408;13.060;2022-11-20T17:39:53;13.40;79.50
3017;DHT22;1518;52.408;13.060;2022-11-20T17:42:42;13.40;79.10
3017;DHT22;1518;52.408;13.060;2022-11-20T17:45:31;13.40;78.60
3017;DHT22;1518;52.408;13.060;2022-11-20T17:48:19;13.30;78.20
3017;DHT22;1518;52.408;13.060;2022-11-20T17:51:08;13.30;78.20
3017;DHT22;1518;52.408;13.060;2022-11-20T17:53:57;13.30;77.80
3017;DHT22;1518;52.408;13.060;2022-11-20T17:56:46;13.30;78.50
3017;DHT22;1518;52.408;13.060;2022-11-20T17:59:55;13.30;78.80
3017;DHT22;1518;52.408;13.060;2022-11-20T18:02:43;13.20;77.90
3017;DHT22;1518;52.408;13.060;2022-11-20T18:05:31;13.30;78.50
3017;DHT22;1518;52.408;13.060;2022-11-20T18:08:19;13.20;78.60
3017;DHT22;1518;52.408;13.060;2022-11-20T18:11:11;13.10;79.20
3017;DHT22;1518;52.408;13.060;2022-11-20T18:14:01;13.10;78.80
3017;DHT22;1518;52.408;13.060;2022-11-20T18:17:11;13.10;79.50
3017;DHT22;1518;52.408;13.060;2022-11-20T18:19:59;13.10;78.60
3017;DHT22;1518;52.408;13.060;2022-11-20T18:23:07;13.10;78.60
3017;DHT22;1518;52.408;13.060;2022-11-20T18:25:58;13.10;78.60
3017;DHT22;1518;52.408;13.060;2022-11-20T18:28:46;13.10;79.10